createdAt,value
2017-08-26T00:00:01.718Z,12.3
2017-08-26T00:05:01.658Z,12.3
2017-08-26T00:10:01.974Z,12.1
2017-08-26T00:15:01.550Z,12.1
2017-08-26T00:20:01.304Z,12.1
2017-08-26T00:25:01.270Z,12.1
2017-08-26T00:30:02.051Z,12
2017-08-26T00:35:01.775Z,12
2017-08-26T00:40:01.857Z,11.9
2017-08-26T00:45:01.970Z,11.8
2017-08-26T00:50:01.763Z,11.7
2017-08-26T00:55:02.067Z,11.7
2017-08-26T01:00:01.953Z,11.7
2017-08-26T01:05:01.765Z,11.6
2017-08-26T01:10:01.704Z,11.6
2017-08-26T01:15:01.979Z,11.5
2017-08-26T01:20:01.845Z,11.5
2017-08-26T01:25:01.633Z,11.4
2017-08-26T01:30:01.404Z,11.4
2017-08-26T01:35:02.043Z,11.4
2017-08-26T01:40:02.085Z,11.3
2017-08-26T01:45:01.166Z,11.3
2017-08-26T01:50:01.837Z,11.3
2017-08-26T01:55:01.646Z,11.2
2017-08-26T02:00:01.487Z,11.2
2017-08-26T02:05:01.535Z,11.2
2017-08-26T02:10:01.491Z,11.2
2017-08-26T02:15:01.269Z,11.2
2017-08-26T02:20:01.389Z,11.2
2017-08-26T02:25:01.973Z,11
2017-08-26T02:30:01.623Z,11
2017-08-26T02:35:02.156Z,11
2017-08-26T02:40:02.262Z,10.9
2017-08-26T02:45:01.868Z,10.8
2017-08-26T02:50:02.135Z,10.8
2017-08-26T02:55:02.014Z,10.8
2017-08-26T03:00:02.158Z,10.8
2017-08-26T03:05:01.919Z,10.8
2017-08-26T03:10:01.723Z,10.8
2017-08-26T03:15:01.702Z,10.8
2017-08-26T03:20:01.534Z,10.6
2017-08-26T03:25:01.297Z,10.6
2017-08-26T03:30:01.367Z,10.6
2017-08-26T03:35:01.945Z,10.6
2017-08-26T03:40:01.197Z,10.5
2017-08-26T03:45:01.952Z,10.4
2017-08-26T03:50:01.749Z,10.4
2017-08-26T03:55:01.549Z,10.5
2017-08-26T04:00:01.583Z,10.4
2017-08-26T04:05:01.788Z,10.4
2017-08-26T04:10:01.800Z,10.4
2017-08-26T04:15:01.990Z,10.3
2017-08-26T04:20:02.077Z,10.3
2017-08-26T04:25:01.346Z,10.2
2017-08-26T04:30:01.808Z,10.2
2017-08-26T04:35:01.943Z,10.4
2017-08-26T04:40:01.680Z,10.4
2017-08-26T04:45:01.754Z,10.3
2017-08-26T04:50:01.787Z,10.3
2017-08-26T04:55:01.536Z,10.4
2017-08-26T05:00:01.547Z,10.4
2017-08-26T05:05:01.420Z,10.4
2017-08-26T05:10:01.439Z,10.4
2017-08-26T05:15:01.563Z,10.5
2017-08-26T05:20:01.511Z,10.5
2017-08-26T05:25:02.016Z,10.7
2017-08-26T05:30:01.983Z,10.7
2017-08-26T05:35:01.670Z,10.8
2017-08-26T05:40:01.848Z,10.8
2017-08-26T05:45:01.993Z,10.8
2017-08-26T05:50:01.830Z,10.8
2017-08-26T05:55:01.800Z,11.2
2017-08-26T06:00:01.787Z,11.3
2017-08-26T06:05:01.706Z,11.4
2017-08-26T06:10:02.076Z,11.5
2017-08-26T06:15:01.494Z,11.6
2017-08-26T06:20:02.144Z,11.6
2017-08-26T06:25:01.705Z,11.8
2017-08-26T06:30:01.797Z,12.1
2017-08-26T06:35:02.017Z,12.1
2017-08-26T06:40:01.752Z,12.2
2017-08-26T06:45:01.775Z,12.4
2017-08-26T06:50:01.827Z,12.7
2017-08-26T06:55:01.344Z,12.7
2017-08-26T07:00:01.741Z,13.2
2017-08-26T07:05:01.552Z,13.4
2017-08-26T07:10:01.725Z,13.4
2017-08-26T07:15:01.680Z,13.4
2017-08-26T07:20:01.423Z,14.2
2017-08-26T07:25:01.669Z,14.2
2017-08-26T07:30:01.762Z,14.2
2017-08-26T07:35:02.083Z,15
2017-08-26T07:40:01.761Z,15
2017-08-26T07:45:01.696Z,15
2017-08-26T07:50:01.631Z,15.3
2017-08-26T07:55:02.056Z,15.3
2017-08-26T08:00:02.008Z,16.1
2017-08-26T08:05:01.896Z,16.1
2017-08-26T08:10:01.271Z,16.6
2017-08-26T08:15:01.404Z,16.8
2017-08-26T08:20:02.146Z,16.8
2017-08-26T08:25:02.128Z,17.3
2017-08-26T08:30:01.286Z,17.3
2017-08-26T08:35:01.711Z,17.7
2017-08-26T08:40:01.430Z,17.7
2017-08-26T08:45:02.124Z,18.5
2017-08-26T08:50:02.057Z,18.5
2017-08-26T08:55:02.138Z,18.9
2017-08-26T09:00:02.158Z,18.9
2017-08-26T09:05:01.703Z,18.9
2017-08-26T09:10:01.501Z,19.4
2017-08-26T09:15:02.040Z,19.4
2017-08-26T09:20:01.701Z,19.7
2017-08-26T09:25:01.670Z,19.7
2017-08-26T09:30:02.130Z,19.7
2017-08-26T09:35:02.132Z,19.7
2017-08-26T09:40:01.996Z,20.1
2017-08-26T09:45:01.390Z,20.2
2017-08-26T09:50:01.256Z,20.2
2017-08-26T09:55:01.500Z,20.4
2017-08-26T10:00:01.778Z,20.4
2017-08-26T10:05:01.911Z,20.4
2017-08-26T10:10:01.749Z,20.4
2017-08-26T10:15:01.943Z,20.5
2017-08-26T10:20:01.660Z,20.5
2017-08-26T10:25:01.289Z,20.5
2017-08-26T10:30:01.798Z,20.6
2017-08-26T10:35:01.488Z,20.6
2017-08-26T10:40:01.196Z,20.6
2017-08-26T10:45:01.199Z,20.6
2017-08-26T10:50:02.149Z,20.8
2017-08-26T10:55:01.384Z,20.8
2017-08-26T11:00:01.678Z,20.8
2017-08-26T11:05:01.996Z,20.8
2017-08-26T11:10:01.387Z,20.9
2017-08-26T11:15:01.821Z,20.9
2017-08-26T11:20:01.532Z,20.9
2017-08-26T11:25:02.007Z,20.9
2017-08-26T11:30:01.294Z,20.9
2017-08-26T11:35:01.701Z,21
2017-08-26T11:40:01.419Z,21.2
2017-08-26T11:45:02.148Z,21.2
2017-08-26T11:50:02.038Z,21.2
2017-08-26T11:55:01.934Z,21.3
2017-08-26T12:00:01.200Z,21.3
2017-08-26T12:05:01.699Z,21.3
2017-08-26T12:10:01.565Z,21.3
2017-08-26T12:15:01.945Z,21.3
2017-08-26T12:20:01.567Z,21.3
2017-08-26T12:25:02.056Z,21.3
2017-08-26T12:30:01.374Z,21.3
2017-08-26T12:35:01.802Z,21.3
2017-08-26T12:40:02.147Z,21.4
2017-08-26T12:45:01.440Z,21.4
2017-08-26T12:50:01.422Z,21.3
2017-08-26T12:55:01.622Z,21.3
2017-08-26T13:00:01.937Z,21.2
2017-08-26T13:05:01.664Z,21.2
2017-08-26T13:10:01.538Z,21.2
2017-08-26T13:15:01.719Z,21.2
2017-08-26T13:20:01.932Z,21.2
2017-08-26T13:25:01.655Z,21.2
2017-08-26T13:30:01.549Z,21.2
2017-08-26T13:35:02.159Z,21.2
2017-08-26T13:40:02.179Z,21.2
2017-08-26T13:45:01.945Z,21.2
2017-08-26T13:50:01.726Z,21.2
2017-08-26T13:55:02.145Z,21.2
2017-08-26T14:00:01.845Z,21.3
2017-08-26T14:05:01.670Z,21.3
2017-08-26T14:10:02.175Z,21.3
2017-08-26T14:15:01.322Z,21.3
2017-08-26T14:20:01.890Z,21
2017-08-26T14:25:01.783Z,21
2017-08-26T14:30:01.700Z,21
2017-08-26T14:35:01.307Z,21
2017-08-26T14:40:01.407Z,21
2017-08-26T14:45:01.333Z,20.3
2017-08-26T14:50:02.091Z,20.2
2017-08-26T14:55:01.920Z,20.1
2017-08-26T15:00:01.985Z,20
2017-08-26T15:05:01.522Z,20
2017-08-26T15:10:02.063Z,19.9
2017-08-26T15:15:02.233Z,19.9
2017-08-26T15:20:02.173Z,19.9
2017-08-26T15:25:01.853Z,19.7
2017-08-26T15:30:01.694Z,19.6
2017-08-26T15:35:01.304Z,19.6
2017-08-26T15:40:02.002Z,19.5
2017-08-26T15:45:01.980Z,19.5
2017-08-26T15:50:01.550Z,19.5
2017-08-26T15:55:01.818Z,19.5
2017-08-26T16:00:01.982Z,19.4
2017-08-26T16:05:01.872Z,19.4
2017-08-26T16:10:01.507Z,19.4
2017-08-26T16:15:01.370Z,19.4
2017-08-26T16:20:02.052Z,19.4
2017-08-26T16:25:01.651Z,19.4
2017-08-26T16:30:02.133Z,19.4
2017-08-26T16:35:01.378Z,19.4
2017-08-26T16:40:01.423Z,19.4
2017-08-26T16:45:01.937Z,19.4
2017-08-26T16:50:01.696Z,19.4
2017-08-26T16:55:01.490Z,19.3
2017-08-26T17:00:01.882Z,19.3
2017-08-26T17:05:02.097Z,19.3
2017-08-26T17:10:01.996Z,19.1
2017-08-26T17:15:01.573Z,19.2
2017-08-26T17:20:01.530Z,19.2
2017-08-26T17:25:02.171Z,19.1
2017-08-26T17:30:01.934Z,19.1
2017-08-26T17:35:01.638Z,19.1
2017-08-26T17:40:02.178Z,19.1
2017-08-26T17:45:02.044Z,18.9
2017-08-26T17:50:01.610Z,18.9
2017-08-26T17:55:01.494Z,18.9
2017-08-26T18:00:02.138Z,18.9
2017-08-26T18:05:02.247Z,18.8
2017-08-26T18:10:01.976Z,18.8
2017-08-26T18:15:01.875Z,18.8
2017-08-26T18:20:01.877Z,18.8
2017-08-26T18:25:01.998Z,18.8
2017-08-26T18:30:01.784Z,18.7
2017-08-26T18:35:01.586Z,18.7
2017-08-26T18:40:01.890Z,18.6
2017-08-26T18:45:01.551Z,18.6
2017-08-26T18:50:02.277Z,18.5
2017-08-26T18:55:01.939Z,18.4
2017-08-26T19:00:01.414Z,18.4
2017-08-26T19:05:02.121Z,18.3
2017-08-26T19:10:01.668Z,18.2
2017-08-26T19:15:01.535Z,18.2
2017-08-26T19:20:02.167Z,18.2
2017-08-26T19:25:01.285Z,18.2
2017-08-26T19:30:01.823Z,18.2
2017-08-26T19:35:01.281Z,18.1
2017-08-26T19:40:01.702Z,18.1
2017-08-26T19:45:01.742Z,18
2017-08-26T19:50:01.764Z,18
2017-08-26T19:55:01.490Z,18
2017-08-26T20:00:01.674Z,18
2017-08-26T20:05:01.644Z,18
2017-08-26T20:10:01.861Z,18
2017-08-26T20:15:02.172Z,17.9
2017-08-26T20:20:02.159Z,17.9
2017-08-26T20:25:01.485Z,17.8
2017-08-26T20:30:01.607Z,17.8
2017-08-26T20:35:01.595Z,17.8
2017-08-26T20:40:02.047Z,17.8
2017-08-26T20:45:01.395Z,17.7
2017-08-26T20:50:02.040Z,17.7
2017-08-26T20:55:01.723Z,17.7
2017-08-26T21:00:01.859Z,17.7
2017-08-26T21:05:01.619Z,17.7
2017-08-26T21:10:01.476Z,17.7
2017-08-26T21:15:02.162Z,17.7
2017-08-26T21:20:02.187Z,17.7
2017-08-26T21:25:01.355Z,17.7
2017-08-26T21:30:01.310Z,17.6
2017-08-26T21:35:01.751Z,17.6
2017-08-26T21:40:01.610Z,17.6
2017-08-26T21:45:01.956Z,17.6
2017-08-26T21:50:01.705Z,17.5
2017-08-26T21:55:01.975Z,17.5
2017-08-26T22:00:01.993Z,17.5
2017-08-26T22:05:02.112Z,17.5
2017-08-26T22:10:01.835Z,17.5
2017-08-26T22:15:01.538Z,17.4
2017-08-26T22:20:01.260Z,17.4
2017-08-26T22:25:02.149Z,17.4
2017-08-26T22:30:04.741Z,17.4
2017-08-26T22:35:01.965Z,17.3
2017-08-26T22:40:01.892Z,17.3
2017-08-26T22:45:01.258Z,17.2
2017-08-26T22:50:02.004Z,17.2
2017-08-26T22:55:01.564Z,17.2
2017-08-26T23:00:01.784Z,17.2
2017-08-26T23:05:01.334Z,17.2
2017-08-26T23:10:02.242Z,17.2
2017-08-26T23:15:01.754Z,17.2
2017-08-26T23:20:01.477Z,17.2
2017-08-26T23:25:01.457Z,17.2
2017-08-26T23:30:01.184Z,17.2
2017-08-26T23:35:02.145Z,17.1
2017-08-26T23:40:01.969Z,17.1
2017-08-26T23:45:01.765Z,17.1
2017-08-26T23:50:01.442Z,17.1
2017-08-26T23:55:01.849Z,17
